Time;durP1;ratioP1;P1;durP2;ratioP2;P2;SDS_P1;SDS_P2;PMS_P1;PMS_P2;Temp;Humidity;BMP_temperature;BMP_pressure;BME280_temperature;BME280_humidity;BME280_pressure;Samples;Min_cycle;Max_cycle;Signal;HPM_P1;HPM_P2
2023/08/30 00:01:47;;;;;;;26.25;17.98;;;;;;;11.63;100.00;96142.78;5069764;28;20055;-71
2023/08/30 00:04:13;;;;;;;26.00;18.38;;;;;;;11.75;100.00;96138.09;5064117;28;20044;-69
2023/08/30 00:06:38;;;;;;;24.30;17.02;;;;;;;11.85;100.00;96135.38;5064370;28;20068;-68
2023/08/30 00:09:04;;;;;;;22.45;16.80;;;;;;;11.95;100.00;96128.38;5061631;28;20380;-69
2023/08/30 00:11:30;;;;;;;23.73;15.73;;;;;;;11.99;100.00;96136.59;5057839;28;20045;-68
2023/08/30 00:14:03;;;;;;;20.70;15.52;;;;;;;11.99;100.00;96134.66;5044161;28;20037;-68
2023/08/30 00:16:28;;;;;;;22.92;16.65;;;;;;;12.01;100.00;96132.31;5042425;28;20052;-68
2023/08/30 00:18:54;;;;;;;23.38;16.23;;;;;;;11.93;100.00;96130.72;5044136;28;20386;-68
2023/08/30 00:21:19;;;;;;;21.10;15.77;;;;;;;11.86;100.00;96141.66;5036273;28;20033;-68
2023/08/30 00:23:44;;;;;;;22.95;16.15;;;;;;;11.85;100.00;96142.84;5029711;28;20045;-68
2023/08/30 00:26:10;;;;;;;23.50;16.88;;;;;;;11.82;100.00;96141.63;5021144;28;20036;-67
2023/08/30 00:28:35;;;;;;;24.63;17.50;;;;;;;11.71;100.00;96143.56;5044409;28;20107;-67
2023/08/30 00:31:01;;;;;;;24.25;17.20;;;;;;;11.74;100.00;96140.06;5043900;28;20041;-67
2023/08/30 00:33:26;;;;;;;28.65;18.42;;;;;;;11.81;100.00;96137.34;5038922;28;20048;-70
2023/08/30 00:35:58;;;;;;;28.52;18.75;;;;;;;11.90;100.00;96133.41;5025254;28;20052;-68
2023/08/30 00:38:26;;;;;;;26.55;18.08;;;;;;;11.91;100.00;96135.81;5039353;28;20055;-69
2023/08/30 00:40:52;;;;;;;22.13;16.75;;;;;;;11.98;100.00;96138.56;5045184;28;20474;-69
2023/08/30 00:43:18;;;;;;;21.98;16.70;;;;;;;12.08;100.00;96134.25;5039189;28;20051;-70
2023/08/30 00:45:44;;;;;;;22.88;15.75;;;;;;;12.10;100.00;96134.69;5043607;28;20056;-66
2023/08/30 00:48:10;;;;;;;24.08;15.77;;;;;;;12.09;100.00;96127.59;5038672;28;20037;-68
2023/08/30 00:50:36;;;;;;;19.50;15.35;;;;;;;12.03;100.00;96126.44;5043180;28;20061;-68
2023/08/30 00:53:05;;;;;;;20.08;15.07;;;;;;;11.98;100.00;96137.78;5040352;28;20037;-72
2023/08/30 00:55:35;;;;;;;20.45;15.77;;;;;;;12.08;100.00;96126.03;5061253;28;20093;-67
2023/08/30 00:58:02;;;;;;;19.80;15.43;;;;;;;12.20;100.00;96122.13;5032245;28;20040;-68
2023/08/30 01:00:29;;;;;;;19.30;13.60;;;;;;;12.27;100.00;96113.13;5042771;28;20087;-68
2023/08/30 01:02:55;;;;;;;28.77;17.38;;;;;;;12.30;100.00;96115.88;5043461;28;20060;-67
2023/08/30 01:05:21;;;;;;;25.92;15.27;;;;;;;12.34;100.00;96118.63;5039074;28;20105;-66
2023/08/30 01:07:46;;;;;;;22.13;13.88;;;;;;;12.37;100.00;96109.56;5037734;28;20120;-69
2023/08/30 01:10:12;;;;;;;18.83;13.27;;;;;;;12.40;100.00;96117.03;5055849;28;20037;-68
2023/08/30 01:12:42;;;;;;;18.77;11.95;;;;;;;12.43;100.00;96113.50;5044296;28;20076;-68
2023/08/30 01:15:29;;;;;;;13.77;9.73;;;;;;;12.33;100.00;96108.78;5035373;28;20364;-68
2023/08/30 01:17:55;;;;;;;15.15;10.27;;;;;;;12.32;100.00;96110.00;5062320;28;20047;-68
2023/08/30 01:20:24;;;;;;;14.50;10.40;;;;;;;12.31;100.00;96095.44;5056175;28;20048;-68
2023/08/30 01:23:16;;;;;;;17.80;10.30;;;;;;;12.32;100.00;96102.53;5046915;28;20052;-67
2023/08/30 01:25:50;;;;;;;11.48;8.90;;;;;;;12.37;100.00;96104.06;5042904;28;20041;-72
2023/08/30 01:28:20;;;;;;;27.27;11.20;;;;;;;12.40;100.00;96095.06;5037838;28;20041;-67
2023/08/30 01:30:47;;;;;;;12.52;8.18;;;;;;;12.39;100.00;96094.28;5041887;28;20045;-67
2023/08/30 01:33:15;;;;;;;13.63;7.78;;;;;;;12.40;100.00;96089.56;5037733;28;20473;-68
2023/08/30 01:35:41;;;;;;;10.07;6.70;;;;;;;12.42;100.00;96093.50;5042117;28;20044;-69
2023/08/30 01:38:08;;;;;;;11.00;7.25;;;;;;;12.38;100.00;96089.19;5039151;28;20037;-70
2023/08/30 01:40:37;;;;;;;9.50;6.40;;;;;;;12.37;100.00;96090.34;5026430;28;20094;-70
2023/08/30 01:43:05;;;;;;;8.07;6.38;;;;;;;12.33;100.00;96090.34;5042069;28;20067;-72
2023/08/30 01:45:33;;;;;;;9.93;7.53;;;;;;;12.35;100.00;96088.03;5024643;28;20053;-67
2023/08/30 01:47:58;;;;;;;9.07;7.53;;;;;;;12.45;100.00;96083.69;5043113;28;20056;-66
2023/08/30 01:50:24;;;;;;;8.48;6.90;;;;;;;12.45;100.00;96080.94;5038205;28;20480;-66
2023/08/30 01:52:51;;;;;;;10.68;8.70;;;;;;;12.44;100.00;96079.34;5025647;28;20040;-70
2023/08/30 01:55:20;;;;;;;11.73;9.07;;;;;;;12.30;100.00;96082.91;5057908;28;20045;-69
2023/08/30 01:57:45;;;;;;;11.82;9.88;;;;;;;12.27;100.00;96089.19;5062908;28;20111;-70
2023/08/30 02:00:12;;;;;;;13.20;10.57;;;;;;;12.21;100.00;96088.03;5043694;28;20482;-68
2023/08/30 02:02:37;;;;;;;14.10;9.85;;;;;;;12.00;100.00;96092.31;5042457;28;20482;-68
2023/08/30 02:05:03;;;;;;;11.35;8.75;;;;;;;11.86;100.00;96087.53;5040928;28;20064;-72
2023/08/30 02:07:48;;;;;;;13.15;8.48;;;;;;;11.82;100.00;96081.28;5003743;28;20071;-69
2023/08/30 02:10:21;;;;;;;11.88;7.80;;;;;;;11.78;100.00;96085.97;5038519;28;20037;-68
2023/08/30 02:12:48;;;;;;;8.02;6.78;;;;;;;11.78;100.00;96085.97;5038333;28;20136;-69
2023/08/30 02:15:17;;;;;;;12.02;7.38;;;;;;;11.86;100.00;96084.81;5041421;28;20067;-67
2023/08/30 02:17:43;;;;;;;9.35;7.22;;;;;;;11.94;100.00;96087.59;5041209;28;20437;-69
2023/08/30 02:20:09;;;;;;;12.13;8.82;;;;;;;12.02;100.00;96081.72;5039579;28;20029;-66
2023/08/30 02:22:35;;;;;;;10.90;9.10;;;;;;;12.14;100.00;96077.03;5055232;28;20047;-69
2023/08/30 02:25:04;;;;;;;13.10;9.23;;;;;;;12.23;100.00;96069.97;5061609;28;20040;-68
2023/08/30 02:27:31;;;;;;;12.35;8.98;;;;;;;12.28;100.00;96070.75;5064120;28;20040;-70
2023/08/30 02:29:56;;;;;;;9.68;8.20;;;;;;;12.33;100.00;96062.13;5064414;28;20510;-68
2023/08/30 02:32:22;;;;;;;15.40;9.30;;;;;;;12.34;100.00;96067.22;5056453;28;20348;-68
2023/08/30 02:34:52;;;;;;;11.90;9.20;;;;;;;12.26;100.00;96073.88;5062294;28;20047;-67
2023/08/30 02:37:18;;;;;;;12.90;9.98;;;;;;;12.03;100.00;96077.03;5057451;28;20055;-69
2023/08/30 02:39:44;;;;;;;19.15;12.77;;;;;;;11.76;100.00;96068.34;5062984;28;20043;-68
2023/08/30 02:42:09;;;;;;;16.02;11.55;;;;;;;11.66;100.00;96078.13;5039736;28;20492;-68
2023/08/30 02:44:35;;;;;;;16.65;12.45;;;;;;;11.55;100.00;96071.84;5061044;28;20200;-70
2023/08/30 02:47:00;;;;;;;15.68;11.18;;;;;;;11.54;100.00;96076.53;5062922;28;20512;-68
2023/08/30 02:49:25;;;;;;;16.67;10.98;;;;;;;11.63;100.00;96065.97;5040908;28;20076;-69
2023/08/30 02:51:51;;;;;;;16.35;11.05;;;;;;;11.68;100.00;96078.50;5062680;28;20068;-69
2023/08/30 02:54:16;;;;;;;14.98;10.10;;;;;;;11.59;100.00;96075.34;5056456;28;20090;-68
2023/08/30 02:56:43;;;;;;;15.30;10.27;;;;;;;11.59;100.00;96065.16;5062878;28;20036;-69
2023/08/30 02:59:09;;;;;;;15.13;10.05;;;;;;;11.61;100.00;96067.53;5041884;28;20045;-68
2023/08/30 03:01:35;;;;;;;13.07;10.05;;;;;;;11.64;100.00;96064.00;5046115;28;20041;-69
2023/08/30 03:04:00;;;;;;;13.88;9.90;;;;;;;11.69;100.00;96057.38;5045450;28;20135;-68
2023/08/30 03:06:26;;;;;;;14.95;10.90;;;;;;;11.81;100.00;96056.97;5041279;28;20039;-69
2023/08/30 03:08:53;;;;;;;15.43;10.23;;;;;;;11.89;100.00;96066.00;5045408;28;20041;-68
2023/08/30 03:11:19;;;;;;;12.20;9.60;;;;;;;11.96;100.00;96060.56;5040280;28;20044;-68
2023/08/30 03:13:44;;;;;;;14.30;9.07;;;;;;;11.96;100.00;96061.34;5054049;28;20396;-69
2023/08/30 03:16:14;;;;;;;12.32;8.73;;;;;;;11.98;100.00;96063.69;5055675;28;20128;-69
2023/08/30 03:18:40;;;;;;;13.45;9.60;;;;;;;12.00;100.00;96059.38;5065711;28;20051;-68
2023/08/30 03:21:06;;;;;;;11.45;9.40;;;;;;;11.96;100.00;96061.34;5059200;28;20036;-67
2023/08/30 03:23:32;;;;;;;12.43;9.32;;;;;;;11.89;100.00;96061.31;5030128;28;20041;-68
2023/08/30 03:25:58;;;;;;;13.70;9.13;;;;;;;11.85;100.00;96058.56;5064327;28;20029;-68
2023/08/30 03:28:24;;;;;;;16.60;9.57;;;;;;;11.89;100.00;96055.81;5041083;28;20045;-68
2023/08/30 03:30:49;;;;;;;16.33;8.90;;;;;;;11.92;100.00;96059.75;5045489;28;20045;-69
2023/08/30 03:33:14;;;;;;;11.48;9.05;;;;;;;11.90;100.00;96065.63;5039946;28;20040;-69
2023/08/30 03:35:40;;;;;;;12.70;8.63;;;;;;;11.90;100.00;96054.66;5044518;28;20048;-68
2023/08/30 03:38:05;;;;;;;12.85;9.40;;;;;;;11.84;100.00;96062.47;5040902;28;20048;-68
2023/08/30 03:40:31;;;;;;;12.88;9.75;;;;;;;11.79;100.00;96053.84;5027063;28;20486;-68
2023/08/30 03:42:56;;;;;;;15.02;10.52;;;;;;;11.74;100.00;96055.03;5030093;28;20044;-67
2023/08/30 03:45:21;;;;;;;13.52;10.60;;;;;;;11.63;100.00;96046.78;5041679;28;20370;-70
2023/08/30 03:47:47;;;;;;;15.60;10.65;;;;;;;11.59;100.00;96047.94;5046635;28;20111;-69
2023/08/30 03:50:12;;;;;;;15.43;10.73;;;;;;;11.43;100.00;96053.75;5040809;28;20041;-68
2023/08/30 03:52:38;;;;;;;18.40;10.80;;;;;;;11.31;100.00;96054.94;5044936;28;20049;-70
2023/08/30 03:55:03;;;;;;;14.15;10.68;;;;;;;11.26;100.00;96060.78;5032742;28;20059;-74
2023/08/30 03:57:29;;;;;;;14.73;10.77;;;;;;;11.22;100.00;96065.47;5044164;28;20041;-67
2023/08/30 03:59:54;;;;;;;13.43;9.80;;;;;;;11.25;100.00;96059.19;5046369;28;20049;-68
2023/08/30 04:02:19;;;;;;;17.67;11.10;;;;;;;11.23;100.00;96065.06;5041088;28;20041;-70
2023/08/30 04:04:48;;;;;;;16.05;11.52;;;;;;;11.07;100.00;96064.59;5044722;28;20076;-69
2023/08/30 04:07:14;;;;;;;17.02;10.95;;;;;;;10.98;100.00;96064.19;5041423;28;20041;-71
2023/08/30 04:09:39;;;;;;;18.15;12.18;;;;;;;10.94;100.00;96066.91;5029788;28;20099;-70
2023/08/30 04:12:05;;;;;;;16.13;11.32;;;;;;;10.93;100.00;96072.75;5040275;28;20045;-71
2023/08/30 04:14:31;;;;;;;20.10;11.63;;;;;;;10.90;100.00;96069.63;5027012;28;20043;-67
2023/08/30 04:16:57;;;;;;;18.20;11.32;;;;;;;10.93;100.00;96064.53;5045793;28;20033;-69
2023/08/30 04:19:22;;;;;;;21.48;11.65;;;;;;;10.86;100.00;96068.06;5039397;28;20623;-68
2023/08/30 04:21:47;;;;;;;21.45;15.32;;;;;;;10.84;100.00;96068.44;5051492;28;20115;-69
2023/08/30 04:24:14;;;;;;;25.67;15.85;;;;;;;10.84;100.00;96073.91;5044609;28;20057;-69
2023/08/30 04:26:40;;;;;;;20.48;12.35;;;;;;;10.80;100.00;96072.31;5045092;28;20392;-68
2023/08/30 04:29:05;;;;;;;17.17;11.80;;;;;;;10.81;100.00;96073.91;5041444;28;20071;-68
2023/08/30 04:31:30;;;;;;;20.15;12.90;;;;;;;10.85;100.00;96077.44;5048914;28;20045;-71
2023/08/30 04:33:56;;;;;;;20.48;12.65;;;;;;;10.84;100.00;96073.09;5064782;28;20048;-70
2023/08/30 04:36:21;;;;;;;21.77;13.05;;;;;;;10.87;100.00;96075.88;5040573;28;20049;-66
2023/08/30 04:38:47;;;;;;;17.85;12.50;;;;;;;10.99;100.00;96071.25;5044881;28;20037;-66
2023/08/30 04:41:12;;;;;;;16.40;11.95;;;;;;;10.88;100.00;96063.75;5053471;28;20041;-69
2023/08/30 04:43:38;;;;;;;16.88;11.45;;;;;;;10.91;100.00;96075.88;5044053;28;20049;-68
2023/08/30 04:46:03;;;;;;;17.80;12.55;;;;;;;10.85;100.00;96072.72;5043787;28;20563;-72
2023/08/30 04:48:29;;;;;;;19.17;11.07;;;;;;;10.84;100.00;96073.09;5049370;28;20079;-69
2023/08/30 04:50:59;;;;;;;19.13;11.93;;;;;;;10.82;100.00;96075.44;5037229;28;20281;-69
2023/08/30 04:53:25;;;;;;;15.88;11.18;;;;;;;10.81;100.00;96082.13;5056835;28;20068;-70
2023/08/30 04:55:50;;;;;;;16.52;11.68;;;;;;;10.83;100.00;96082.50;5078000;28;20028;-68
2023/08/30 04:58:16;;;;;;;17.15;11.13;;;;;;;10.86;100.00;96082.53;5060001;28;20116;-71
2023/08/30 05:00:41;;;;;;;15.80;10.45;;;;;;;11.02;100.00;96075.94;5044655;28;20119;-69
2023/08/30 05:03:07;;;;;;;13.57;9.88;;;;;;;11.15;100.00;96077.19;5041226;28;20052;-68
2023/08/30 05:05:32;;;;;;;16.63;10.20;;;;;;;11.09;100.00;96081.44;5046855;28;20041;-70
2023/08/30 05:07:57;;;;;;;15.73;9.88;;;;;;;10.95;100.00;96081.38;5046812;28;20041;-70
2023/08/30 05:10:23;;;;;;;12.88;9.73;;;;;;;10.88;100.00;96079.41;5022517;28;20659;-68
2023/08/30 05:12:51;;;;;;;13.43;9.95;;;;;;;10.86;100.00;96079.78;5023569;28;20041;-69
2023/08/30 05:15:17;;;;;;;14.45;10.07;;;;;;;10.82;100.00;96075.44;5048780;28;20037;-69
2023/08/30 05:17:43;;;;;;;15.95;10.70;;;;;;;10.78;100.00;96072.69;5044353;28;20500;-69
2023/08/30 05:20:09;;;;;;;14.93;10.57;;;;;;;10.76;100.00;96068.78;5039134;28;20033;-70
2023/08/30 05:22:34;;;;;;;17.17;10.52;;;;;;;10.77;100.00;96073.06;5042625;28;20047;-70
2023/08/30 05:25:00;;;;;;;17.63;11.57;;;;;;;10.78;100.00;96074.66;5033997;28;20056;-67
2023/08/30 05:27:26;;;;;;;21.35;12.43;;;;;;;10.84;100.00;96062.16;5031103;28;20201;-67
2023/08/30 05:29:51;;;;;;;15.95;10.95;;;;;;;10.90;100.00;96064.16;5043136;28;20045;-69
2023/08/30 05:32:17;;;;;;;12.55;9.52;;;;;;;11.05;100.00;96064.22;5038841;28;20045;-71
2023/08/30 05:34:42;;;;;;;13.60;9.80;;;;;;;11.22;100.00;96065.47;5042699;28;20052;-71
2023/08/30 05:37:08;;;;;;;13.50;9.25;;;;;;;11.31;100.00;96073.31;5021605;28;20055;-69
2023/08/30 05:39:34;;;;;;;11.63;9.25;;;;;;;11.40;100.00;96063.56;5025932;28;20051;-70
2023/08/30 05:41:59;;;;;;;11.52;8.93;;;;;;;11.60;100.00;96057.75;5048833;28;20394;-69
2023/08/30 05:44:25;;;;;;;10.77;8.10;;;;;;;11.69;100.00;96060.88;5038758;28;20136;-69
2023/08/30 05:46:50;;;;;;;14.18;8.48;;;;;;;11.79;100.00;96073.84;5043206;28;20504;-68
2023/08/30 05:49:16;;;;;;;13.50;8.45;;;;;;;11.88;100.00;96065.22;5037818;28;20083;-67
2023/08/30 05:51:41;;;;;;;9.10;7.53;;;;;;;11.97;100.00;96065.63;5043379;28;20045;-69
2023/08/30 05:54:06;;;;;;;8.65;7.22;;;;;;;11.86;100.00;96071.09;5042630;28;20039;-66
2023/08/30 05:56:32;;;;;;;11.38;7.80;;;;;;;11.64;100.00;96066.75;5062713;28;20063;-69
2023/08/30 05:58:57;;;;;;;10.68;8.20;;;;;;;11.46;100.00;96070.22;5056707;28;20147;-68
2023/08/30 06:01:23;;;;;;;10.18;7.68;;;;;;;11.45;100.00;96070.63;5037402;28;20640;-69
2023/08/30 06:03:48;;;;;;;9.50;7.53;;;;;;;11.43;100.00;96078.44;5062164;28;20199;-68
2023/08/30 06:06:16;;;;;;;10.45;8.25;;;;;;;11.48;100.00;96067.88;5056649;28;20505;-69
2023/08/30 06:08:42;;;;;;;10.70;8.43;;;;;;;11.42;100.00;96071.41;5062503;28;20043;-69
2023/08/30 06:11:07;;;;;;;11.65;8.68;;;;;;;11.44;100.00;96072.56;5057684;28;20045;-70
2023/08/30 06:13:33;;;;;;;12.68;7.95;;;;;;;11.44;100.00;96078.06;5024360;28;20064;-68
2023/08/30 06:15:58;;;;;;;13.60;8.43;;;;;;;11.52;100.00;96081.59;5048470;28;20041;-68
2023/08/30 06:18:24;;;;;;;11.55;8.07;;;;;;;11.58;100.00;96085.56;5037666;28;20045;-69
2023/08/30 06:20:49;;;;;;;10.52;7.68;;;;;;;11.60;100.00;96090.66;5042633;28;20110;-68
2023/08/30 06:23:18;;;;;;;8.73;7.10;;;;;;;11.73;100.00;96080.88;5039478;28;20080;-68
2023/08/30 06:25:43;;;;;;;10.47;7.33;;;;;;;11.71;100.00;96085.19;5052906;28;20087;-66
2023/08/30 06:28:09;;;;;;;9.48;7.35;;;;;;;11.74;100.00;96093.44;5020196;28;20040;-67
2023/08/30 06:30:34;;;;;;;14.45;7.50;;;;;;;11.71;100.00;96093.41;5043103;28;20079;-69
2023/08/30 06:33:00;;;;;;;9.65;8.10;;;;;;;11.80;100.00;96088.34;5041464;28;20405;-69
2023/08/30 06:35:26;;;;;;;11.50;7.25;;;;;;;11.94;100.00;96090.34;5037236;28;20041;-69
2023/08/30 06:37:52;;;;;;;8.05;6.43;;;;;;;12.05;100.00;96096.63;5023901;28;20041;-69
2023/08/30 06:40:17;;;;;;;8.55;6.72;;;;;;;12.15;100.00;96095.84;5037549;28;20044;-68
2023/08/30 06:42:43;;;;;;;9.60;6.53;;;;;;;12.26;100.00;96100.56;5042617;28;20045;-69
2023/08/30 06:45:08;;;;;;;7.90;6.35;;;;;;;12.38;100.00;96103.69;5037985;28;20045;-68
2023/08/30 06:47:34;;;;;;;18.92;12.35;;;;;;;12.30;100.00;96093.09;5042639;28;20068;-68
2023/08/30 06:50:00;;;;;;;8.23;5.93;;;;;;;12.28;100.00;96089.97;5050394;28;20037;-71
2023/08/30 06:52:26;;;;;;;8.68;6.25;;;;;;;12.14;100.00;96094.28;5040928;28;20610;-68
2023/08/30 06:54:52;;;;;;;6.32;5.43;;;;;;;12.13;100.00;96089.19;5042413;28;20045;-70
2023/08/30 06:57:17;;;;;;;7.32;5.43;;;;;;;12.07;100.00;96091.53;5038621;28;20037;-68
2023/08/30 06:59:42;;;;;;;8.07;5.70;;;;;;;12.07;100.00;96080.56;5041737;28;20068;-66
2023/08/30 07:02:08;;;;;;;10.32;5.93;;;;;;;12.18;100.00;96084.09;5038573;28;20052;-71
2023/08/30 07:04:33;;;;;;;7.85;4.97;;;;;;;12.29;100.00;96077.81;5041606;28;20040;-67
2023/08/30 07:06:59;;;;;;;5.80;4.55;;;;;;;12.37;100.00;96074.69;5042971;28;20043;-68
2023/08/30 07:09:28;;;;;;;6.55;5.53;;;;;;;12.38;100.00;96075.44;5036233;28;20041;-68
2023/08/30 07:11:55;;;;;;;6.82;5.03;;;;;;;12.46;100.00;96071.53;5042501;28;20461;-69
2023/08/30 07:14:20;;;;;;;4.85;4.10;;;;;;;12.73;100.00;96076.56;5047025;28;20044;-68
2023/08/30 07:16:46;;;;;;;6.53;4.05;;;;;;;12.99;100.00;96078.09;5042479;28;20051;-68
2023/08/30 07:19:11;;;;;;;6.65;3.60;;;;;;;12.64;100.00;96077.00;5038793;28;20060;-68
2023/08/30 07:21:38;;;;;;;4.68;3.25;;;;;;;12.93;100.00;96069.47;5046951;28;20041;-69
2023/08/30 07:24:05;;;;;;;4.95;3.75;;;;;;;13.20;100.00;96077.25;5023839;28;20140;-69
2023/08/30 07:26:31;;;;;;;3.83;3.08;;;;;;;13.11;100.00;96074.13;5041881;28;20051;-67
2023/08/30 07:28:56;;;;;;;5.45;3.33;;;;;;;13.53;100.00;96075.91;5024312;28;20132;-67
2023/08/30 07:31:22;;;;;;;4.47;3.30;;;;;;;13.54;100.00;96072.00;5036382;28;21091;-67
2023/08/30 07:33:48;;;;;;;3.28;2.70;;;;;;;13.68;100.00;96071.13;5022981;28;20056;-69
2023/08/30 07:36:13;;;;;;;6.38;2.35;;;;;;;13.61;100.00;96071.16;5034302;28;20099;-67
2023/08/30 07:38:39;;;;;;;5.50;2.53;;;;;;;13.61;100.00;96070.38;5043903;28;20048;-67
2023/08/30 07:41:04;;;;;;;4.00;3.10;;;;;;;13.47;100.00;96073.97;5039901;28;20132;-72
2023/08/30 07:43:30;;;;;;;3.40;2.70;;;;;;;14.20;100.00;96072.34;5043514;28;20045;-67
2023/08/30 07:45:56;;;;;;;3.70;2.72;;;;;;;14.31;100.00;96075.78;5041618;28;20498;-68
2023/08/30 07:48:22;;;;;;;3.63;2.67;;;;;;;14.07;100.00;96075.59;5041132;28;20866;-66
2023/08/30 07:50:47;;;;;;;4.63;2.63;;;;;;;13.86;100.00;96065.50;5048004;28;20163;-69
2023/08/30 07:53:12;;;;;;;3.42;2.55;;;;;;;14.46;100.00;96065.44;5040265;28;20068;-68
2023/08/30 07:55:38;;;;;;;2.78;2.00;;;;;;;15.12;100.00;96072.66;5054091;28;20048;-67
2023/08/30 07:58:03;;;;;;;7.63;2.55;;;;;;;16.01;100.00;96064.44;5064493;28;20029;-71
2023/08/30 08:00:29;;;;;;;5.75;2.20;;;;;;;17.16;100.00;96070.75;5031908;28;20128;-68
2023/08/30 08:02:55;;;;;;;7.05;2.45;;;;;;;17.68;100.00;96075.63;5047676;28;20140;-69
2023/08/30 08:05:21;;;;;;;3.13;1.67;;;;;;;17.95;100.00;96071.88;5042964;28;20163;-69
2023/08/30 08:07:51;;;;;;;2.63;1.95;;;;;;;16.56;100.00;96076.94;5052832;28;20037;-68
2023/08/30 08:10:16;;;;;;;2.85;2.00;;;;;;;16.28;100.00;96078.22;5045902;28;20048;-69
2023/08/30 08:12:43;;;;;;;3.75;1.80;;;;;;;17.39;100.00;96079.00;5048259;28;20037;-69
2023/08/30 08:15:09;;;;;;;3.90;2.03;;;;;;;17.06;100.00;96089.13;5047004;28;20072;-68
2023/08/30 08:17:34;;;;;;;3.38;2.00;;;;;;;17.44;100.00;96088.78;5048283;28;20049;-68
2023/08/30 08:20:00;;;;;;;2.20;1.50;;;;;;;19.04;100.00;96088.25;5049162;28;20064;-68
2023/08/30 08:22:25;;;;;;;2.30;1.60;;;;;;;20.28;90.50;96097.41;5040316;28;20060;-68
2023/08/30 08:24:53;;;;;;;3.20;1.48;;;;;;;21.84;70.46;96106.41;5044112;28;20033;-69
2023/08/30 08:27:18;;;;;;;2.38;1.33;;;;;;;22.90;66.45;96099.03;5039293;28;20132;-69
2023/08/30 08:29:44;;;;;;;4.55;1.42;;;;;;;24.11;58.89;96108.94;5043637;28;20182;-69
2023/08/30 08:32:09;;;;;;;4.38;2.92;;;;;;;23.71;59.46;96109.13;5040722;28;20371;-66
2023/08/30 08:34:35;;;;;;;2.28;1.23;;;;;;;22.70;61.79;96108.59;5045459;28;20498;-68
2023/08/30 08:37:00;;;;;;;2.83;1.67;;;;;;;22.66;60.18;96110.78;5048987;28;20052;-69
2023/08/30 08:39:25;;;;;;;3.42;1.67;;;;;;;22.01;59.46;96106.94;5040972;28;20465;-67
2023/08/30 08:41:52;;;;;;;1.92;1.42;;;;;;;21.37;61.54;96105.28;5044682;28;20041;-69
2023/08/30 08:44:19;;;;;;;3.83;1.50;;;;;;;21.11;63.26;96110.16;5040675;28;20128;-66
2023/08/30 08:46:46;;;;;;;4.00;2.00;;;;;;;20.59;67.49;96101.13;5044820;28;20059;-68
2023/08/30 08:49:13;;;;;;;4.50;3.05;;;;;;;20.41;71.57;96100.94;5039252;28;20494;-69
2023/08/30 08:51:40;;;;;;;3.65;1.80;;;;;;;20.10;69.25;96106.31;5043876;28;20431;-69
2023/08/30 08:54:06;;;;;;;3.22;1.80;;;;;;;18.86;79.88;96094.25;5044597;28;20412;-68
2023/08/30 08:56:33;;;;;;;3.63;2.00;;;;;;;19.11;80.40;96092.81;5063914;28;20044;-68
2023/08/30 08:58:59;;;;;;;5.63;2.95;;;;;;;18.84;82.97;96084.81;5058004;28;20033;-69
2023/08/30 09:01:25;;;;;;;4.45;2.10;;;;;;;19.73;75.71;96087.13;5039915;28;20033;-68
2023/08/30 09:03:51;;;;;;;3.97;2.45;;;;;;;19.55;75.73;96097.97;5053235;28;20040;-66
2023/08/30 09:06:18;;;;;;;3.28;1.60;;;;;;;19.33;78.57;96090.22;5060601;28;20053;-66
2023/08/30 09:08:43;;;;;;;2.53;1.50;;;;;;;19.58;76.54;96091.53;5044733;28;20049;-68
2023/08/30 09:11:08;;;;;;;4.18;1.90;;;;;;;19.86;77.71;96090.72;5039798;28;20060;-68
2023/08/30 09:13:34;;;;;;;4.07;1.50;;;;;;;19.88;78.74;96093.06;5050750;28;20037;-67
2023/08/30 09:15:59;;;;;;;4.32;1.98;;;;;;;19.92;73.72;96098.50;5054865;28;20059;-68
2023/08/30 09:18:28;;;;;;;2.38;1.52;;;;;;;19.40;78.59;96095.59;5058860;28;20544;-65
2023/08/30 09:21:07;;;;;;;1.63;1.15;;;;;;;19.24;80.50;96088.09;5063030;28;20037;-68
2023/08/30 09:23:33;;;;;;;3.07;1.60;;;;;;;19.11;82.46;96095.59;5043829;28;20036;-68
2023/08/30 09:25:59;;;;;;;3.13;1.60;;;;;;;18.93;82.84;96092.53;5062999;28;20109;-68
2023/08/30 09:28:25;;;;;;;2.33;1.55;;;;;;;18.50;83.17;96097.13;5046506;28;20068;-67
2023/08/30 09:30:51;;;;;;;6.45;3.55;;;;;;;18.63;80.04;96097.97;5043404;28;20157;-69
2023/08/30 09:33:37;;;;;;;3.22;1.70;;;;;;;17.81;86.17;96094.34;5038382;28;20136;-68
2023/08/30 09:36:10;;;;;;;1.95;1.38;;;;;;;17.83;85.15;96087.16;5038921;28;20041;-69
2023/08/30 09:38:37;;;;;;;2.90;1.20;;;;;;;18.01;83.03;96097.09;5044006;28;20533;-67
2023/08/30 09:41:04;;;;;;;1.65;1.20;;;;;;;17.95;82.84;96094.84;5044537;28;20464;-70
2023/08/30 09:43:32;;;;;;;4.63;1.20;;;;;;;17.89;83.46;96091.00;5046017;28;20508;-68
2023/08/30 09:45:58;;;;;;;2.22;1.20;;;;;;;18.11;76.16;96090.53;5044447;28;20505;-67
2023/08/30 09:48:28;;;;;;;1.42;1.13;;;;;;;18.46;77.45;96090.91;5041745;28;20047;-68
2023/08/30 09:50:57;;;;;;;3.53;1.20;;;;;;;19.35;71.17;96090.56;5046508;28;20120;-68
2023/08/30 09:53:29;;;;;;;1.33;0.80;;;;;;;19.76;67.57;96102.16;5042616;28;20754;-68
2023/08/30 09:55:55;;;;;;;1.50;0.90;;;;;;;20.46;61.49;96102.41;5043506;28;20036;-67
2023/08/30 09:58:23;;;;;;;5.72;1.20;;;;;;;20.82;64.63;96096.47;5038217;28;20121;-70
2023/08/30 10:00:49;;;;;;;2.47;1.25;;;;;;;20.46;63.63;96094.84;5023326;28;20044;-68
2023/08/30 10:03:18;;;;;;;8.35;2.90;;;;;;;21.41;61.55;96096.81;5039588;28;20045;-67
2023/08/30 10:05:45;;;;;;;1.80;1.02;;;;;;;21.55;59.29;96098.31;5044680;28;20040;-67
2023/08/30 10:08:12;;;;;;;4.28;1.20;;;;;;;21.58;60.73;96094.63;5057473;28;20488;-68
2023/08/30 10:10:39;;;;;;;4.82;1.70;;;;;;;21.64;59.97;96080.88;5063476;28;20048;-67
2023/08/30 10:13:05;;;;;;;3.38;1.10;;;;;;;21.50;58.83;96082.16;5071929;28;20074;-71
2023/08/30 10:15:35;;;;;;;4.70;1.27;;;;;;;21.69;60.16;96083.84;5019832;28;20040;-67
2023/08/30 10:18:02;;;;;;;3.95;1.55;;;;;;;21.45;57.92;96077.19;5044297;28;20072;-70
2023/08/30 10:20:28;;;;;;;2.63;1.40;;;;;;;21.11;60.89;96068.41;5041946;28;20041;-67
2023/08/30 10:22:57;;;;;;;3.78;1.60;;;;;;;21.00;61.74;96079.16;5049167;28;20033;-69
2023/08/30 10:25:29;;;;;;;1.63;1.08;;;;;;;21.40;61.18;96070.16;5025158;28;20362;-68
2023/08/30 10:27:56;;;;;;;3.53;1.42;;;;;;;21.88;59.46;96073.59;5044755;28;20059;-67
2023/08/30 10:30:24;;;;;;;2.97;1.63;;;;;;;22.01;58.22;96070.69;5038803;28;29106;-69
2023/08/30 10:32:49;;;;;;;2.60;1.30;;;;;;;22.42;57.70;96074.28;5023807;28;20045;-68
2023/08/30 10:35:17;;;;;;;2.08;1.65;;;;;;;22.79;57.12;96068.75;5036468;28;20044;-69
2023/08/30 10:37:54;;;;;;;4.30;1.70;;;;;;;22.86;57.62;96071.25;5042299;28;20044;-69
2023/08/30 10:40:21;;;;;;;2.00;1.42;;;;;;;22.32;59.31;96070.69;5036707;28;20504;-68
2023/08/30 10:42:57;;;;;;;2.63;1.63;;;;;;;22.44;60.20;96060.66;5042068;28;20045;-68
2023/08/30 10:45:24;;;;;;;3.10;1.40;;;;;;;22.00;58.29;96066.34;5036514;28;20775;-67
2023/08/30 10:47:55;;;;;;;1.92;1.40;;;;;;;21.90;57.23;96061.97;5041343;28;20033;-69
2023/08/30 10:50:30;;;;;;;2.85;1.20;;;;;;;21.95;57.94;96066.97;5036527;28;20045;-67
2023/08/30 10:52:56;;;;;;;3.85;1.30;;;;;;;21.92;58.17;96062.28;5041713;28;20036;-69
2023/08/30 10:55:22;;;;;;;2.25;1.30;;;;;;;21.51;58.10;96058.66;5026798;28;20068;-68
2023/08/30 10:57:59;;;;;;;3.20;1.25;;;;;;;22.03;58.16;96051.50;5041426;28;20091;-69
2023/08/30 11:00:25;;;;;;;2.10;1.35;;;;;;;22.21;56.16;96045.22;5036427;28;20135;-67
2023/08/30 11:02:51;;;;;;;3.88;1.50;;;;;;;22.70;53.91;96061.16;5046151;28;20044;-66
2023/08/30 11:05:19;;;;;;;3.95;1.33;;;;;;;21.73;53.42;96053.84;5039132;28;20052;-67
2023/08/30 11:07:45;;;;;;;2.90;1.48;;;;;;;22.49;55.00;96054.47;5041755;28;20098;-68
2023/08/30 11:10:11;;;;;;;3.92;1.52;;;;;;;22.90;52.43;96052.34;5034559;28;20044;-67
2023/08/30 11:12:39;;;;;;;1.88;1.23;;;;;;;22.95;52.62;96053.75;5024546;28;20451;-68
2023/08/30 11:15:07;;;;;;;2.78;1.10;;;;;;;23.30;51.60;96050.66;5043269;28;20037;-70
2023/08/30 11:17:32;;;;;;;7.90;1.60;;;;;;;23.66;52.46;96049.06;5041576;28;20159;-68